Time;durP1;ratioP1;P1;durP2;ratioP2;P2;SDS_P1;SDS_P2;PMS_P1;PMS_P2;Temp;Humidity;BMP_temperature;BMP_pressure;BME280_temperature;BME280_humidity;BME280_pressure;Samples;Min_cycle;Max_cycle;Signal;HPM_P1;HPM_P2
2023/03/13 00:00:31;;;;;;;;;3.33;1.00;;;;;15.16;100.00;100438.84;4976041;28;59240;-81
2023/03/13 00:02:56;;;;;;;;;4.00;2.00;;;;;15.14;100.00;100427.34;4977657;28;45526;-82
2023/03/13 00:05:21;;;;;;;;;1.33;1.33;;;;;15.18;100.00;100445.03;4977634;28;46824;-79
2023/03/13 00:07:46;;;;;;;;;1.00;1.00;;;;;15.18;100.00;100442.38;4976029;28;69398;-80
2023/03/13 00:10:12;;;;;;;;;1.00;1.00;;;;;15.17;100.00;100425.50;4977516;28;45359;-80
2023/03/13 00:12:37;;;;;;;;;2.00;2.00;;;;;15.18;100.00;100432.59;4974361;28;62323;-81
2023/03/13 00:15:03;;;;;;;;;1.00;1.00;;;;;15.19;100.00;100439.69;4991964;28;70961;-80
2023/03/13 00:17:29;;;;;;;;;2.00;2.00;;;;;15.22;100.00;100440.53;4974486;28;45356;-82
2023/03/13 00:19:54;;;;;;;;;3.00;1.67;;;;;15.19;100.00;100434.34;4976825;28;45285;-82
2023/03/13 00:22:20;;;;;;;;;2.00;1.00;;;;;15.20;100.00;100436.13;4976495;28;46538;-81
2023/03/13 00:24:45;;;;;;;;;2.00;1.00;;;;;15.20;100.00;100422.81;4976388;28;46122;-80
2023/03/13 00:29:46;;;;;;;;;2.33;1.00;;;;;15.22;100.00;100409.47;5057398;22;45550;-80
2023/03/13 00:32:11;;;;;;;;;2.67;2.00;;;;;15.23;100.00;100405.91;5037017;28;45274;-81
2023/03/13 00:34:37;;;;;;;;;3.00;2.00;;;;;15.23;100.00;100413.91;5030252;28;70126;-80
2023/03/13 00:37:02;;;;;;;;;1.00;1.00;;;;;15.24;100.00;100401.50;5036297;28;45357;-82
2023/03/13 00:39:27;;;;;;;;;3.67;1.00;;;;;15.24;100.00;100404.16;5036732;28;59125;-80
2023/03/13 00:41:52;;;;;;;;;1.00;1.00;;;;;15.23;100.00;100399.72;5037108;28;56036;-80
2023/03/13 00:44:18;;;;;;;;;1.00;1.00;;;;;15.23;100.00;100400.59;5035686;28;72253;-81
2023/03/13 00:46:43;;;;;;;;;1.00;1.00;;;;;15.23;100.00;100418.34;5026995;28;45456;-81
2023/03/13 00:49:08;;;;;;;;;1.00;1.00;;;;;15.20;100.00;100398.88;5034732;28;65755;-80
2023/03/13 00:51:34;;;;;;;;;1.00;1.00;;;;;15.21;100.00;100399.75;5012539;28;50233;-81
2023/03/13 00:53:59;;;;;;;;;0.33;0.33;;;;;15.20;100.00;100404.19;5032720;28;46841;-83
2023/03/13 00:56:25;;;;;;;;;1.00;1.00;;;;;15.22;100.00;100397.97;5034643;28;45368;-82
2023/03/13 00:58:51;;;;;;;;;1.67;1.67;;;;;15.21;100.00;100397.09;5018372;28;45337;-80
2023/03/13 01:01:20;;;;;;;;;1.00;1.00;;;;;15.22;100.00;100405.94;5034714;28;60626;-82
2023/03/13 01:03:54;;;;;;;;;1.00;1.00;;;;;15.20;100.00;100404.19;5032303;28;46717;-81
2023/03/13 01:06:22;;;;;;;;;2.67;1.33;;;;;15.23;100.00;100389.94;5025143;28;45455;-80
2023/03/13 01:08:47;;;;;;;;;1.00;1.00;;;;;15.23;100.00;100391.75;5035572;28;45560;-83
2023/03/13 01:11:16;;;;;;;;;1.67;1.67;;;;;15.21;100.00;100365.19;5014980;28;45511;-80
2023/03/13 01:13:41;;;;;;;;;1.67;1.67;;;;;15.22;100.00;100371.38;5028363;28;46175;-80
2023/03/13 01:16:09;;;;;;;;;1.67;1.00;;;;;15.23;100.00;100367.81;5032137;28;45461;-82
2023/03/13 01:18:36;;;;;;;;;1.00;1.00;;;;;15.22;100.00;100366.06;5018054;28;45293;-83
2023/03/13 01:21:02;;;;;;;;;2.00;1.00;;;;;15.23;100.00;100359.81;5027548;28;46039;-81
2023/03/13 01:23:27;;;;;;;;;4.00;2.00;;;;;15.24;100.00;100356.28;5035733;28;47628;-79
2023/03/13 01:25:54;;;;;;;;;4.00;1.67;;;;;15.25;100.00;100368.69;5017613;28;52518;-84
2023/03/13 01:28:20;;;;;;;;;1.67;1.67;;;;;15.23;100.00;100347.41;5030772;28;45401;-83
2023/03/13 01:30:45;;;;;;;;;2.00;2.00;;;;;15.24;100.00;100341.22;5027846;28;45460;-80
2023/03/13 01:33:10;;;;;;;;;1.33;1.33;;;;;15.22;100.00;100331.47;5030535;28;47264;-82
2023/03/13 01:35:36;;;;;;;;;4.00;3.67;;;;;15.23;100.00;100328.78;5026615;28;45279;-80
2023/03/13 01:38:01;;;;;;;;;6.00;3.00;;;;;15.19;100.00;100332.41;5036236;28;60180;-82
2023/03/13 01:40:26;;;;;;;;;4.67;3.00;;;;;15.23;100.00;100360.69;5030093;28;52509;-81
2023/03/13 01:42:59;;;;;;;;;2.33;2.00;;;;;15.23;100.00;100358.03;5014543;28;73086;-83
2023/03/13 01:45:49;;;;;;;;;2.00;2.00;;;;;15.23;100.00;100349.19;5035984;28;45615;-81
2023/03/13 01:48:14;;;;;;;;;3.33;2.33;;;;;15.23;100.00;100352.72;5023782;28;45362;-81
2023/03/13 01:50:40;;;;;;;;;3.00;2.00;;;;;15.25;100.00;100347.41;4994357;28;45605;-83
2023/03/13 01:53:05;;;;;;;;;2.00;2.00;;;;;15.27;100.00;100324.31;5032336;28;71418;-81
2023/03/13 01:55:31;;;;;;;;;3.33;2.00;;;;;15.26;100.00;100317.22;5026634;28;66975;-82
2023/03/13 01:57:57;;;;;;;;;3.33;2.33;;;;;15.28;100.00;100313.63;5032550;28;63136;-79
2023/03/13 02:00:26;;;;;;;;;3.00;3.00;;;;;15.29;100.00;100304.78;5016896;28;49977;-83
2023/03/13 02:02:54;;;;;;;;;2.00;2.00;;;;;15.29;100.00;100323.41;5013170;28;46498;-80
2023/03/13 02:05:22;;;;;;;;;4.00;2.00;;;;;15.29;100.00;100317.19;5030837;28;45290;-81
2023/03/13 02:07:52;;;;;;;;;2.67;2.33;;;;;15.30;100.00;100311.84;5017952;28;45445;-81
2023/03/13 02:10:18;;;;;;;;;1.00;1.00;;;;;15.32;100.00;100303.81;5034966;28;45467;-79
2023/03/13 02:12:43;;;;;;;;;3.00;2.00;;;;;15.32;100.00;100307.34;5037497;28;71083;-80
2023/03/13 02:15:13;;;;;;;;;2.00;2.00;;;;;15.31;100.00;100300.28;5012623;28;54986;-80
2023/03/13 02:17:40;;;;;;;;;4.00;2.67;;;;;15.34;100.00;100308.22;5026785;28;45611;-82
2023/03/13 02:20:07;;;;;;;;;5.67;3.00;;;;;15.34;100.00;100300.25;5011919;28;45550;-81
2023/03/13 02:22:44;;;;;;;;;4.67;2.00;;;;;15.36;100.00;100301.09;5029018;28;45815;-80
2023/03/13 02:25:22;;;;;;;;;4.00;2.00;;;;;15.37;100.00;100294.00;5027516;28;45341;-82
2023/03/13 02:27:50;;;;;;;;;4.00;2.33;;;;;15.34;100.00;100291.38;5026091;28;45445;-80
2023/03/13 02:30:16;;;;;;;;;2.00;2.00;;;;;15.32;100.00;100282.53;4999066;28;45583;-82
2023/03/13 02:32:42;;;;;;;;;5.00;3.33;;;;;15.30;100.00;100279.03;5037151;28;64708;-80
2023/03/13 02:35:10;;;;;;;;;3.33;3.33;;;;;15.27;100.00;100282.63;5036487;28;45335;-81
2023/03/13 02:37:36;;;;;;;;;4.00;2.00;;;;;15.24;100.00;100272.06;5035549;28;45555;-81
2023/03/13 02:40:08;;;;;;;;;4.67;3.00;;;;;15.24;100.00;100274.72;5003020;28;45584;-79
2023/03/13 02:42:35;;;;;;;;;3.00;3.00;;;;;15.25;100.00;100275.59;5020428;28;46694;-82
2023/03/13 02:45:01;;;;;;;;;2.00;2.00;;;;;15.24;100.00;100280.03;5016572;28;45355;-80
2023/03/13 02:47:26;;;;;;;;;1.33;1.33;;;;;15.26;100.00;100288.84;5031391;28;59750;-82
2023/03/13 02:49:51;;;;;;;;;3.33;3.00;;;;;15.27;100.00;100292.38;5031897;28;63273;-83
2023/03/13 02:52:19;;;;;;;;;6.00;3.00;;;;;15.27;100.00;100269.31;5034431;28;53457;-81
2023/03/13 02:54:46;;;;;;;;;5.00;3.00;;;;;15.26;100.00;100259.59;5037578;28;45506;-82
2023/03/13 02:57:12;;;;;;;;;6.67;3.00;;;;;15.26;100.00;100254.28;5020039;28;45759;-79
2023/03/13 02:59:37;;;;;;;;;3.00;2.00;;;;;15.27;100.00;100250.69;5020085;28;45345;-81
2023/03/13 03:02:03;;;;;;;;;2.00;2.00;;;;;15.26;100.00;100245.41;5035905;28;46522;-82
2023/03/13 03:04:29;;;;;;;;;5.00;3.00;;;;;15.28;100.00;100244.47;5011805;28;45487;-80
2023/03/13 03:06:54;;;;;;;;;3.33;3.33;;;;;15.31;100.00;100249.75;5020355;28;45503;-81
2023/03/13 03:09:20;;;;;;;;;3.00;3.00;;;;;15.32;100.00;100247.97;5019013;28;51045;-79
2023/03/13 03:11:46;;;;;;;;;5.67;2.00;;;;;15.33;100.00;100247.06;5036986;28;45451;-81
2023/03/13 03:14:12;;;;;;;;;2.00;2.00;;;;;15.34;100.00;100243.47;5019523;28;55112;-80
2023/03/13 03:16:37;;;;;;;;;4.00;3.00;;;;;15.35;100.00;100240.81;5012473;28;59541;-81
2023/03/13 03:19:03;;;;;;;;;2.00;2.00;;;;;15.36;100.00;100242.56;5015066;28;45654;-81
2023/03/13 03:21:29;;;;;;;;;2.00;2.00;;;;;15.36;100.00;100242.56;5015448;28;46280;-79
2023/03/13 03:23:54;;;;;;;;;3.00;2.00;;;;;15.37;100.00;100239.00;5030227;28;45398;-83
2023/03/13 03:26:20;;;;;;;;;3.33;2.67;;;;;15.41;100.00;100237.16;5028934;28;45563;-81
2023/03/13 03:28:45;;;;;;;;;3.00;1.00;;;;;15.40;100.00;100244.28;5018687;28;45503;-80
2023/03/13 03:31:13;;;;;;;;;2.67;2.67;;;;;15.42;100.00;100239.78;5036610;28;67243;-80
2023/03/13 03:33:39;;;;;;;;;3.00;3.00;;;;;15.44;100.00;100237.97;5039193;28;45499;-81
2023/03/13 03:36:12;;;;;;;;;4.00;2.33;;;;;15.47;100.00;100237.06;5036108;28;45439;-81
2023/03/13 03:38:38;;;;;;;;;5.00;2.67;;;;;15.47;100.00;100231.72;5035873;28;45366;-81
2023/03/13 03:41:04;;;;;;;;;4.67;3.00;;;;;15.49;100.00;100232.56;5016891;28;47729;-81
2023/03/13 03:43:30;;;;;;;;;2.00;2.00;;;;;15.50;100.00;100237.00;5030291;28;45263;-81
2023/03/13 03:45:55;;;;;;;;;4.00;2.00;;;;;15.53;100.00;100238.72;5012946;28;64625;-79
2023/03/13 03:48:20;;;;;;;;;5.00;2.00;;;;;15.52;100.00;100229.88;5036605;28;63343;-83
2023/03/13 03:50:46;;;;;;;;;3.00;3.00;;;;;15.53;100.00;100244.03;5036392;28;68979;-81
2023/03/13 03:53:11;;;;;;;;;3.00;3.00;;;;;15.52;100.00;100237.84;5029611;28;67835;-80
2023/03/13 03:55:36;;;;;;;;;3.00;2.00;;;;;15.52;100.00;100237.84;5037000;28;58218;-83
2023/03/13 03:58:02;;;;;;;;;2.33;2.33;;;;;15.53;100.00;100231.63;5037839;28;62464;-83
2023/03/13 04:00:27;;;;;;;;;5.00;1.67;;;;;15.54;100.00;100221.84;5010792;28;72601;-79
2023/03/13 04:02:54;;;;;;;;;2.00;2.00;;;;;15.52;100.00;100223.66;5037309;28;45506;-80
2023/03/13 04:05:20;;;;;;;;;3.00;3.00;;;;;15.54;100.00;100233.34;5032301;28;45511;-82
2023/03/13 04:07:45;;;;;;;;;5.00;3.00;;;;;15.53;100.00;100233.41;5036806;28;61438;-85
2023/03/13 04:10:10;;;;;;;;;3.00;3.00;;;;;15.53;100.00;100228.94;5031883;28;65182;-82
2023/03/13 04:12:36;;;;;;;;;4.33;2.00;;;;;15.54;100.00;100230.69;5036591;28;45289;-84
2023/03/13 04:15:01;;;;;;;;;6.33;3.00;;;;;15.57;100.00;100243.09;5035233;28;62274;-82
2023/03/13 04:17:27;;;;;;;;;2.00;2.00;;;;;15.56;100.00;100212.06;5018705;28;45553;-82
2023/03/13 04:19:52;;;;;;;;;6.00;5.00;;;;;15.57;100.00;100214.69;5012148;28;71126;-82
2023/03/13 04:22:17;;;;;;;;;4.00;2.33;;;;;15.58;100.00;100213.78;5035793;28;58694;-81
2023/03/13 04:24:43;;;;;;;;;4.00;3.67;;;;;15.59;100.00;100226.16;5011306;28;45392;-81
2023/03/13 04:27:08;;;;;;;;;2.67;2.67;;;;;15.60;100.00;100219.06;5035615;28;56422;-80
2023/03/13 04:29:34;;;;;;;;;3.00;3.00;;;;;15.62;100.00;100222.59;5018541;28;47338;-81
2023/03/13 04:31:59;;;;;;;;;6.00;3.00;;;;;15.64;100.00;100228.78;4999792;28;45576;-80
2023/03/13 04:34:25;;;;;;;;;5.00;3.00;;;;;15.63;100.00;100229.69;5015044;28;45500;-82
2023/03/13 04:36:50;;;;;;;;;4.33;3.00;;;;;15.63;100.00;100222.59;5029973;28;60381;-83
2023/03/13 04:39:15;;;;;;;;;5.67;4.00;;;;;15.61;100.00;100227.03;5030631;28;46875;-82
2023/03/13 04:41:41;;;;;;;;;4.33;3.33;;;;;15.61;100.00;100224.38;5032117;28;62764;-80
2023/03/13 04:44:06;;;;;;;;;3.33;2.00;;;;;15.62;100.00;100235.91;5035002;28;45407;-79
2023/03/13 04:46:31;;;;;;;;;5.00;3.00;;;;;15.60;100.00;100224.38;5034988;28;45584;-80
2023/03/13 04:48:57;;;;;;;;;3.00;3.00;;;;;15.62;100.00;100226.13;5035875;28;46296;-79
2023/03/13 04:51:22;;;;;;;;;3.67;3.67;;;;;15.63;100.00;100233.22;5035802;28;45441;-80
2023/03/13 04:53:48;;;;;;;;;6.67;4.00;;;;;15.62;100.00;100233.22;5033130;28;55758;-81
2023/03/13 04:56:21;;;;;;;;;6.33;4.00;;;;;15.63;100.00;100233.22;5036017;28;45574;-82
2023/03/13 04:58:46;;;;;;;;;3.00;3.00;;;;;15.62;100.00;100225.25;5040791;28;46466;-80
2023/03/13 05:01:12;;;;;;;;;6.33;4.67;;;;;15.60;100.00;100221.72;5034095;28;64696;-81
2023/03/13 05:03:37;;;;;;;;;6.67;4.33;;;;;15.57;100.00;100222.66;5032431;28;45365;-83
2023/03/13 05:06:03;;;;;;;;;3.00;3.00;;;;;15.55;100.00;100218.25;5028412;28;63357;-82
2023/03/13 05:08:28;;;;;;;;;5.00;3.00;;;;;15.54;100.00;100220.06;5034539;28;46555;-81
2023/03/13 05:10:53;;;;;;;;;4.33;3.00;;;;;15.52;100.00;100213.91;5017216;28;66535;-80
2023/03/13 05:13:18;;;;;;;;;6.33;3.33;;;;;15.52;100.00;100213.03;5035792;28;45196;-82
2023/03/13 05:15:44;;;;;;;;;3.00;3.00;;;;;15.50;100.00;100202.41;5029814;28;61992;-80
2023/03/13 05:18:09;;;;;;;;;4.67;3.00;;;;;15.49;100.00;100200.63;5028309;28;69400;-81
2023/03/13 05:20:34;;;;;;;;;4.00;4.00;;;;;15.47;100.00;100197.13;5031940;28;45456;-81
2023/03/13 05:23:00;;;;;;;;;4.33;3.00;;;;;15.46;100.00;100198.06;5015554;28;63466;-80
2023/03/13 05:25:25;;;;;;;;;5.33;4.00;;;;;15.45;100.00;100212.28;5030799;28;55762;-80
2023/03/13 05:27:50;;;;;;;;;6.00;4.00;;;;;15.46;100.00;100208.69;5034845;28;67518;-84
2023/03/13 05:30:16;;;;;;;;;6.00;3.00;;;;;15.44;100.00;100195.41;5037839;28;69471;-83
2023/03/13 05:32:41;;;;;;;;;4.00;4.00;;;;;15.45;100.00;100206.94;5033784;28;61658;-80
2023/03/13 05:35:07;;;;;;;;;5.00;3.00;;;;;15.45;100.00;100207.81;5033546;28;59548;-82
2023/03/13 05:37:32;;;;;;;;;4.67;3.67;;;;;15.45;100.00;100210.47;5033271;28;46523;-83
2023/03/13 05:39:57;;;;;;;;;6.33;3.00;;;;;15.44;100.00;100222.00;5035878;28;52735;-82
2023/03/13 05:42:23;;;;;;;;;4.00;4.00;;;;;15.42;100.00;100199.00;5032997;28;54619;-82
2023/03/13 05:44:48;;;;;;;;;6.67;5.67;;;;;15.41;100.00;100198.13;5027250;28;45289;-83
2023/03/13 05:47:13;;;;;;;;;5.00;5.00;;;;;15.41;100.00;100199.94;5033759;28;68170;-81
2023/03/13 05:49:39;;;;;;;;;2.33;2.33;;;;;15.41;100.00;100205.25;5032691;28;46924;-81
2023/03/13 05:52:04;;;;;;;;;6.33;3.33;;;;;15.40;100.00;100200.84;5033748;28;45281;-81
2023/03/13 05:54:29;;;;;;;;;6.33;3.00;;;;;15.38;100.00;100192.84;5028535;28;56704;-81
2023/03/13 05:56:55;;;;;;;;;3.00;3.00;;;;;15.36;100.00;100199.13;5039590;28;68426;-81
2023/03/13 05:59:20;;;;;;;;;5.00;4.00;;;;;15.34;100.00;100179.63;5011457;28;45310;-83
2023/03/13 06:01:45;;;;;;;;;4.00;4.00;;;;;15.34;100.00;100175.22;5013423;28;60677;-82
2023/03/13 06:04:11;;;;;;;;;3.67;3.00;;;;;15.33;100.00;100176.09;5035724;28;61251;-80
2023/03/13 06:06:36;;;;;;;;;4.00;4.00;;;;;15.34;100.00;100180.56;5035365;28;55579;-82
2023/03/13 06:09:01;;;;;;;;;5.00;5.00;;;;;15.32;100.00;100177.03;5037910;28;67085;-81
2023/03/13 06:11:26;;;;;;;;;4.33;2.33;;;;;15.35;100.00;100171.66;5017381;28;56404;-82
2023/03/13 06:13:52;;;;;;;;;3.00;3.00;;;;;15.34;100.00;100161.03;5036763;28;61945;-80
2023/03/13 06:16:18;;;;;;;;;6.33;3.00;;;;;15.33;100.00;100177.91;5012282;28;46336;-79
2023/03/13 06:18:44;;;;;;;;;3.67;3.67;;;;;15.30;100.00;100168.22;5035036;28;45499;-83
2023/03/13 06:21:09;;;;;;;;;6.33;3.00;;;;;15.30;100.00;100170.00;5019424;28;45291;-78
2023/03/13 06:23:35;;;;;;;;;4.00;4.00;;;;;15.30;100.00;100164.66;5020056;28;45546;-79
2023/03/13 06:26:00;;;;;;;;;3.00;3.00;;;;;15.31;100.00;100161.09;5035513;28;46849;-79
2023/03/13 06:28:25;;;;;;;;;3.00;3.00;;;;;15.28;100.00;100154.03;5035315;28;48555;-78
2023/03/13 06:30:51;;;;;;;;;5.00;3.67;;;;;15.30;100.00;100154.91;5037343;28;65591;-79
2023/03/13 06:33:16;;;;;;;;;4.00;3.00;;;;;15.30;100.00;100148.72;5037517;28;63734;-83
2023/03/13 06:35:42;;;;;;;;;2.00;2.00;;;;;15.30;100.00;100138.94;5038913;28;67741;-82
2023/03/13 06:38:08;;;;;;;;;5.33;4.00;;;;;15.33;100.00;100138.88;5035037;28;45412;-80
2023/03/13 06:40:34;;;;;;;;;3.67;3.33;;;;;15.33;100.00;100145.97;5033926;28;45474;-79
2023/03/13 06:42:59;;;;;;;;;4.67;3.00;;;;;15.34;100.00;100139.75;5033785;28;45898;-79
2023/03/13 06:45:24;;;;;;;;;2.00;2.00;;;;;15.33;100.00;100146.84;5037004;28;48716;-80
2023/03/13 06:47:51;;;;;;;;;4.67;3.00;;;;;15.33;100.00;100127.34;5019592;28;70324;-80
2023/03/13 06:50:16;;;;;;;;;4.00;3.00;;;;;15.34;100.00;100129.09;5036273;28;46085;-81
2023/03/13 06:52:42;;;;;;;;;3.67;3.67;;;;;15.36;100.00;100137.94;5036427;28;46957;-85
2023/03/13 06:55:08;;;;;;;;;4.00;4.00;;;;;15.39;100.00;100135.22;5040831;28;46081;-81
2023/03/13 06:57:33;;;;;;;;;6.33;3.33;;;;;15.38;100.00;100131.69;5021124;28;45445;-80
2023/03/13 06:59:58;;;;;;;;;4.00;3.00;;;;;15.39;100.00;100117.50;5017166;28;45424;-83
2023/03/13 07:02:24;;;;;;;;;3.00;3.00;;;;;15.38;100.00;100126.34;5020057;28;45661;-81
2023/03/13 07:04:49;;;;;;;;;4.00;4.00;;;;;15.40;100.00;100139.66;5030924;28;70744;-80
2023/03/13 07:07:14;;;;;;;;;3.00;3.00;;;;;15.41;100.00;100113.00;5015709;28;45527;-82
2023/03/13 07:09:40;;;;;;;;;3.33;3.33;;;;;15.45;100.00;100114.72;5036036;28;50452;-85
2023/03/13 07:12:05;;;;;;;;;7.00;4.00;;;;;15.48;100.00;100113.75;5036457;28;63281;-86
2023/03/13 07:14:31;;;;;;;;;3.00;3.00;;;;;15.48;100.00;100100.44;5018457;28;47622;-83
2023/03/13 07:16:58;;;;;;;;;4.00;4.00;;;;;15.52;100.00;100115.44;5000005;28;69146;-85
2023/03/13 07:19:23;;;;;;;;;5.00;3.00;;;;;15.54;100.00;100116.28;5018224;28;45540;-79
2023/03/13 07:21:49;;;;;;;;;4.33;4.00;;;;;15.57;100.00;100104.72;5026472;28;45496;-80
2023/03/13 07:24:14;;;;;;;;;2.00;2.00;;;;;15.60;100.00;100124.13;5018029;28;46037;-80
2023/03/13 07:26:40;;;;;;;;;3.00;3.00;;;;;15.60;100.00;100107.28;5032088;28;45302;-79
2023/03/13 07:29:05;;;;;;;;;3.67;2.00;;;;;15.60;100.00;100102.84;5036014;28;45670;-82
2023/03/13 07:31:32;;;;;;;;;3.00;3.00;;;;;15.62;100.00;100085.06;5023132;28;63911;-78
2023/03/13 07:33:58;;;;;;;;;5.00;3.00;;;;;15.68;100.00;100100.06;5029247;28;47427;-85
2023/03/13 07:36:23;;;;;;;;;3.00;3.00;;;;;15.69;100.00;100097.38;5016922;28;45630;-82
2023/03/13 07:38:50;;;;;;;;;2.33;2.33;;;;;15.73;100.00;100100.84;5017712;28;45463;-74
2023/03/13 07:41:15;;;;;;;;;5.00;3.67;;;;;15.75;100.00;100087.50;5034173;28;45503;-74
2023/03/13 07:43:41;;;;;;;;;5.00;3.00;;;;;15.73;100.00;100089.31;5031946;28;46449;-73
2023/03/13 07:46:08;;;;;;;;;4.00;4.00;;;;;15.70;100.00;100083.13;5037106;28;45429;-73
2023/03/13 07:48:35;;;;;;;;;2.67;2.67;;;;;15.69;100.00;100086.72;5016038;28;45479;-72
2023/03/13 07:51:02;;;;;;;;;2.00;2.00;;;;;15.68;100.00;100079.66;5035051;28;45439;-73
2023/03/13 07:53:28;;;;;;;;;2.00;2.00;;;;;15.72;100.00;100069.81;5031925;28;46302;-72
2023/03/13 07:56:05;;;;;;;;;3.00;2.00;;;;;15.75;100.00;100063.53;5035025;28;45393;-72
2023/03/13 07:58:32;;;;;;;;;2.00;2.00;;;;;15.80;100.00;100082.94;5034835;28;45487;-72
2023/03/13 08:00:58;;;;;;;;;3.00;3.00;;;;;15.80;100.00;100075.84;5034746;28;45432;-73
2023/03/13 08:03:24;;;;;;;;;2.00;2.00;;;;;15.79;100.00;100074.09;5026469;28;46769;-72
2023/03/13 08:06:00;;;;;;;;;3.00;3.00;;;;;15.79;100.00;100076.75;5027675;28;45451;-74
2023/03/13 08:08:26;;;;;;;;;6.33;3.33;;;;;15.76;100.00;100071.47;5027821;28;45488;-74
2023/03/13 08:10:51;;;;;;;;;4.00;2.00;;;;;15.75;100.00;100085.72;5016306;28;45596;-74
2023/03/13 08:13:17;;;;;;;;;4.00;4.00;;;;;15.72;100.00;100061.84;5033089;28;45202;-73
2023/03/13 08:15:42;;;;;;;;;2.00;2.00;;;;;15.74;100.00;100068.00;5030714;28;69071;-73
2023/03/13 08:18:07;;;;;;;;;4.67;2.67;;;;;15.78;100.00;100059.03;5035121;28;64078;-74
2023/03/13 08:20:33;;;;;;;;;3.33;3.00;;;;;15.80;100.00;100064.31;5034036;28;45460;-74
2023/03/13 08:22:58;;;;;;;;;6.00;3.67;;;;;15.83;100.00;100053.59;5032804;28;67672;-73
2023/03/13 08:25:24;;;;;;;;;4.00;2.33;;;;;15.88;100.00;100059.69;5017175;28;45477;-74
2023/03/13 08:27:49;;;;;;;;;2.00;2.00;;;;;15.91;100.00;100046.31;5035650;28;45489;-71
2023/03/13 08:30:14;;;;;;;;;6.33;4.00;;;;;15.91;100.00;100060.47;5034784;28;45442;-73
2023/03/13 08:32:40;;;;;;;;;3.00;3.00;;;;;15.91;100.00;100052.50;5014468;28;47412;-72
2023/03/13 08:35:06;;;;;;;;;4.33;2.33;;;;;15.91;100.00;100059.63;5033362;28;52807;-73
2023/03/13 08:37:31;;;;;;;;;2.00;2.00;;;;;15.88;100.00;100054.38;5035849;28;45462;-73
2023/03/13 08:39:56;;;;;;;;;2.67;2.67;;;;;15.86;100.00;100058.84;5035044;28;61342;-72
2023/03/13 08:42:22;;;;;;;;;6.00;3.67;;;;;15.88;100.00;100054.38;5034263;28;46504;-74
2023/03/13 08:44:48;;;;;;;;;2.67;0.33;;;;;15.91;100.00;100038.31;5032879;28;45725;-72
2023/03/13 08:47:13;;;;;;;;;2.00;2.00;;;;;15.96;100.00;100041.75;5034772;28;45344;-79
2023/03/13 08:49:39;;;;;;;;;4.00;2.00;;;;;15.98;100.00;100040.81;5017278;28;45444;-80
2023/03/13 08:52:05;;;;;;;;;2.00;2.00;;;;;16.00;100.00;100040.78;5032670;28;46024;-84
2023/03/13 08:54:31;;;;;;;;;3.00;3.00;;;;;16.01;100.00;100033.66;5027538;28;45566;-79
2023/03/13 08:56:56;;;;;;;;;2.67;2.67;;;;;16.08;100.00;100036.13;5030876;28;45460;-81
2023/03/13 08:59:21;;;;;;;;;3.33;3.33;;;;;16.15;100.00;100031.53;5031212;28;63877;-79
2023/03/13 09:01:47;;;;;;;;;3.00;3.00;;;;;16.25;100.00;100014.41;5029459;28;47540;-81
2023/03/13 09:04:12;;;;;;;;;2.00;2.00;;;;;16.33;100.00;100019.53;5031442;28;63430;-81
2023/03/13 09:06:38;;;;;;;;;4.00;3.00;;;;;16.39;100.00;100009.59;5032797;28;66436;-83
2023/03/13 09:09:04;;;;;;;;;2.00;2.00;;;;;16.47;100.00;100009.41;5035693;28;45863;-81
2023/03/13 09:11:30;;;;;;;;;2.33;2.33;;;;;16.50;100.00;100007.50;5016437;28;47764;-81
2023/03/13 09:13:58;;;;;;;;;4.33;3.33;;;;;16.56;100.00;100009.13;5032649;28;45689;-80
2023/03/13 09:16:25;;;;;;;;;1.00;1.00;;;;;16.62;100.00;100001.00;5030215;28;45334;-83
2023/03/13 09:18:51;;;;;;;;;1.33;1.33;;;;;16.67;100.00;99984.84;5034275;28;45410;-82
2023/03/13 09:21:21;;;;;;;;;2.00;2.00;;;;;16.71;100.00;99990.09;5032947;28;46494;-79
2023/03/13 09:23:47;;;;;;;;;4.00;3.00;;;;;16.73;100.00;99982.09;5031591;28;45545;-84
2023/03/13 09:26:13;;;;;;;;;4.00;2.00;;;;;16.74;100.00;99984.69;5034939;28;45561;-80
2023/03/13 09:28:40;;;;;;;;;2.00;2.00;;;;;16.68;100.00;99982.19;5018089;28;45526;-78
2023/03/13 09:31:17;;;;;;;;;4.67;2.00;;;;;16.61;100.00;99977.91;5033540;28;47189;-81
2023/03/13 09:33:44;;;;;;;;;5.00;2.00;;;;;16.59;100.00;99984.22;5036069;28;45320;-81
2023/03/13 09:36:10;;;;;;;;;3.00;3.00;;;;;16.52;100.00;99983.50;5033055;28;45580;-79
2023/03/13 09:38:37;;;;;;;;;4.67;2.67;;;;;16.50;100.00;99977.31;5018528;28;45623;-79
2023/03/13 09:41:14;;;;;;;;;3.33;2.00;;;;;16.45;100.00;99974.78;5025763;28;47608;-80
2023/03/13 09:44:07;;;;;;;;;3.00;3.00;;;;;16.42;100.00;99974.88;5014551;28;45852;-83
2023/03/13 09:46:50;;;;;;;;;3.67;3.00;;;;;16.38;100.00;99967.00;5027156;28;45394;-80
2023/03/13 09:49:23;;;;;;;;;5.00;4.00;;;;;16.33;100.00;99966.25;5015304;28;45636;-83
2023/03/13 09:51:52;;;;;;;;;4.00;4.00;;;;;16.27;100.00;99961.97;5031723;28;45924;-81
2023/03/13 09:54:27;;;;;;;;;3.00;3.00;;;;;16.27;100.00;99956.63;5013208;28;45452;-83
2023/03/13 09:57:02;;;;;;;;;4.00;2.67;;;;;16.30;100.00;99950.34;5017655;28;45444;-81
2023/03/13 09:59:42;;;;;;;;;4.33;4.33;;;;;16.30;100.00;99951.25;5031079;28;45602;-80
2023/03/13 10:02:20;;;;;;;;;4.33;2.67;;;;;16.32;100.00;99945.88;5030501;28;46709;-79
2023/03/13 10:04:50;;;;;;;;;2.67;2.67;;;;;16.32;100.00;99938.75;5013139;28;45486;-80
2023/03/13 10:07:15;;;;;;;;;3.00;3.00;;;;;16.32;100.00;99936.06;5034302;28;45515;-80
2023/03/13 10:09:42;;;;;;;;;1.67;1.67;;;;;16.35;100.00;99936.00;5031715;28;45439;-79
2023/03/13 10:12:19;;;;;;;;;2.00;2.00;;;;;16.37;100.00;99930.63;5032265;28;56504;-81
2023/03/13 10:14:53;;;;;;;;;1.67;1.67;;;;;16.42;100.00;99924.25;4996279;28;45771;-78
2023/03/13 10:17:32;;;;;;;;;5.33;2.00;;;;;16.52;100.00;99922.22;5032793;28;45516;-79
2023/03/13 10:20:13;;;;;;;;;2.00;2.00;;;;;16.56;100.00;99920.31;5030856;28;45573;-83
2023/03/13 10:22:41;;;;;;;;;1.67;1.33;;;;;16.61;100.00;99913.94;5014044;28;46695;-81
2023/03/13 10:25:15;;;;;;;;;1.00;1.00;;;;;16.68;100.00;99912.88;5013267;28;45557;-82
2023/03/13 10:27:47;;;;;;;;;3.67;1.00;;;;;16.74;100.00;99917.19;5029459;28;45571;-82
2023/03/13 10:30:23;;;;;;;;;2.00;2.00;;;;;16.79;100.00;99906.38;5035013;28;45364;-81
2023/03/13 10:32:48;;;;;;;;;2.00;1.00;;;;;16.85;100.00;99900.88;5028675;28;46740;-78
2023/03/13 10:35:20;;;;;;;;;2.00;2.00;;;;;16.90;100.00;99901.63;5034529;28;66524;-80
2023/03/13 10:37:45;;;;;;;;;2.67;2.00;;;;;16.88;100.00;99903.44;5033360;28;45433;-81
2023/03/13 10:40:21;;;;;;;;;2.33;2.00;;;;;16.87;100.00;99889.22;5033596;28;63565;-82
2023/03/13 10:42:47;;;;;;;;;2.67;1.00;;;;;17.00;100.00;99879.09;5030760;28;47829;-80
2023/03/13 10:45:16;;;;;;;;;2.00;2.00;;;;;17.12;100.00;99886.69;5013803;28;47198;-83
2023/03/13 10:47:41;;;;;;;;;2.00;2.00;;;;;17.19;100.00;99876.69;5016226;28;45600;-81
2023/03/13 10:50:07;;;;;;;;;2.33;1.00;;;;;17.17;100.00;99874.09;5023445;28;45427;-83
2023/03/13 10:52:41;;;;;;;;;3.00;1.00;;;;;17.13;100.00;99867.09;5015763;28;46483;-82
2023/03/13 10:55:12;;;;;;;;;2.00;2.00;;;;;17.06;100.00;99844.22;5032110;28;45449;-80
2023/03/13 10:57:40;;;;;;;;;1.00;1.00;;;;;17.06;100.00;99862.03;5016577;28;45531;-82
2023/03/13 11:00:23;;;;;;;;;1.33;1.33;;;;;17.08;100.00;99873.50;4996777;28;45607;-79
2023/03/13 11:02:48;;;;;;;;;3.00;1.00;;;;;17.09;100.00;99862.78;5013198;28;47377;-82
2023/03/13 11:05:27;;;;;;;;;1.00;1.00;;;;;17.18;100.00;99857.16;5033819;28;60092;-81
2023/03/13 11:07:53;;;;;;;;;3.33;1.00;;;;;17.32;100.00;99870.06;5019454;28;45498;-81
2023/03/13 11:10:20;;;;;;;;;2.00;1.00;;;;;17.48;100.00;99879.31;5037019;28;45502;-79
2023/03/13 11:12:53;;;;;;;;;1.00;1.00;;;;;17.66;100.00;99876.97;5012971;28;46473;-79
2023/03/13 11:15:30;;;;;;;;;2.33;2.33;;;;;17.77;100.00;99853.47;5018595;28;45357;-80
2023/03/13 11:18:04;;;;;;;;;5.00;3.00;;;;;17.88;100.00;99859.31;5017833;28;45405;-79
2023/03/13 11:20:33;;;;;;;;;1.00;0.00;;;;;18.01;100.00;99870.47;5034485;28;45724;-77